sensor_id;sensor_type;location;lat;lon;timestamp;P1;durP1;ratioP1;P2;durP2;ratioP2
9860;SDS011;4969;52.304;4.968;2023-04-25T00:01:56;14.87;;;3.97;;
9860;SDS011;4969;52.304;4.968;2023-04-25T00:04:22;19.73;;;4.90;;
9860;SDS011;4969;52.304;4.968;2023-04-25T00:06:51;14.67;;;5.43;;
9860;SDS011;4969;52.304;4.968;2023-04-25T00:09:18;11.20;;;4.07;;
9860;SDS011;4969;52.304;4.968;2023-04-25T00:11:45;15.57;;;4.73;;
9860;SDS011;4969;52.304;4.968;2023-04-25T00:14:11;15.43;;;4.20;;
9860;SDS011;4969;52.304;4.968;2023-04-25T00:16:38;14.90;;;4.17;;
9860;SDS011;4969;52.304;4.968;2023-04-25T00:19:06;11.73;;;4.13;;
9860;SDS011;4969;52.304;4.968;2023-04-25T00:21:33;11.63;;;3.80;;
9860;SDS011;4969;52.304;4.968;2023-04-25T00:24:01;12.57;;;4.77;;
9860;SDS011;4969;52.304;4.968;2023-04-25T00:26:28;13.83;;;4.30;;
9860;SDS011;4969;52.304;4.968;2023-04-25T00:28:55;12.93;;;3.90;;
9860;SDS011;4969;52.304;4.968;2023-04-25T00:31:21;17.60;;;4.50;;
9860;SDS011;4969;52.304;4.968;2023-04-25T00:33:48;15.77;;;3.83;;
9860;SDS011;4969;52.304;4.968;2023-04-25T00:36:14;11.13;;;3.30;;
9860;SDS011;4969;52.304;4.968;2023-04-25T00:38:42;10.13;;;4.17;;
9860;SDS011;4969;52.304;4.968;2023-04-25T00:41:10;12.67;;;3.93;;
9860;SDS011;4969;52.304;4.968;2023-04-25T00:43:36;11.30;;;4.00;;
9860;SDS011;4969;52.304;4.968;2023-04-25T00:46:03;13.83;;;4.17;;
9860;SDS011;4969;52.304;4.968;2023-04-25T00:48:30;12.63;;;3.67;;
9860;SDS011;4969;52.304;4.968;2023-04-25T00:50:57;17.40;;;4.73;;
9860;SDS011;4969;52.304;4.968;2023-04-25T00:53:26;10.13;;;3.80;;
9860;SDS011;4969;52.304;4.968;2023-04-25T00:55:54;13.57;;;3.10;;
9860;SDS011;4969;52.304;4.968;2023-04-25T00:58:22;11.97;;;3.67;;
9860;SDS011;4969;52.304;4.968;2023-04-25T01:00:49;16.90;;;3.53;;
9860;SDS011;4969;52.304;4.968;2023-04-25T01:03:18;12.40;;;3.93;;
9860;SDS011;4969;52.304;4.968;2023-04-25T01:05:45;11.37;;;3.70;;
9860;SDS011;4969;52.304;4.968;2023-04-25T01:08:13;11.93;;;3.70;;
9860;SDS011;4969;52.304;4.968;2023-04-25T01:10:40;12.67;;;3.77;;
9860;SDS011;4969;52.304;4.968;2023-04-25T01:13:06;11.83;;;4.10;;
9860;SDS011;4969;52.304;4.968;2023-04-25T01:15:35;8.47;;;3.23;;
9860;SDS011;4969;52.304;4.968;2023-04-25T01:18:02;10.07;;;3.40;;
9860;SDS011;4969;52.304;4.968;2023-04-25T01:20:29;9.80;;;3.03;;
9860;SDS011;4969;52.304;4.968;2023-04-25T01:22:59;13.33;;;3.63;;
9860;SDS011;4969;52.304;4.968;2023-04-25T01:25:27;11.87;;;3.57;;
9860;SDS011;4969;52.304;4.968;2023-04-25T01:27:53;14.73;;;4.50;;
9860;SDS011;4969;52.304;4.968;2023-04-25T01:30:20;13.70;;;3.83;;
9860;SDS011;4969;52.304;4.968;2023-04-25T01:32:47;13.70;;;3.40;;
9860;SDS011;4969;52.304;4.968;2023-04-25T01:35:15;10.43;;;3.30;;
9860;SDS011;4969;52.304;4.968;2023-04-25T01:37:42;8.87;;;3.90;;
9860;SDS011;4969;52.304;4.968;2023-04-25T01:40:11;12.00;;;3.20;;
9860;SDS011;4969;52.304;4.968;2023-04-25T01:42:40;10.60;;;3.27;;
9860;SDS011;4969;52.304;4.968;2023-04-25T01:45:08;13.00;;;4.10;;
9860;SDS011;4969;52.304;4.968;2023-04-25T01:47:36;7.40;;;3.03;;
9860;SDS011;4969;52.304;4.968;2023-04-25T01:50:05;13.60;;;3.70;;
9860;SDS011;4969;52.304;4.968;2023-04-25T01:52:33;12.43;;;3.40;;
9860;SDS011;4969;52.304;4.968;2023-04-25T01:55:00;9.30;;;3.10;;
9860;SDS011;4969;52.304;4.968;2023-04-25T01:57:29;10.87;;;3.40;;
9860;SDS011;4969;52.304;4.968;2023-04-25T01:59:57;13.60;;;3.80;;
9860;SDS011;4969;52.304;4.968;2023-04-25T02:02:25;13.93;;;3.33;;
9860;SDS011;4969;52.304;4.968;2023-04-25T02:04:52;10.30;;;3.07;;
9860;SDS011;4969;52.304;4.968;2023-04-25T02:07:19;9.23;;;2.90;;
9860;SDS011;4969;52.304;4.968;2023-04-25T02:09:45;11.63;;;3.27;;
9860;SDS011;4969;52.304;4.968;2023-04-25T02:12:12;10.70;;;3.23;;
9860;SDS011;4969;52.304;4.968;2023-04-25T02:14:40;10.80;;;3.27;;
9860;SDS011;4969;52.304;4.968;2023-04-25T02:17:06;14.63;;;3.30;;
9860;SDS011;4969;52.304;4.968;2023-04-25T02:19:33;14.00;;;3.70;;
9860;SDS011;4969;52.304;4.968;2023-04-25T02:21:59;13.47;;;3.10;;
9860;SDS011;4969;52.304;4.968;2023-04-25T02:24:26;10.03;;;3.53;;
9860;SDS011;4969;52.304;4.968;2023-04-25T02:26:53;11.00;;;3.20;;
9860;SDS011;4969;52.304;4.968;2023-04-25T02:29:20;11.73;;;3.50;;
9860;SDS011;4969;52.304;4.968;2023-04-25T02:31:48;12.33;;;3.13;;
9860;SDS011;4969;52.304;4.968;2023-04-25T02:34:15;9.87;;;3.20;;
9860;SDS011;4969;52.304;4.968;2023-04-25T02:36:41;9.30;;;2.93;;
9860;SDS011;4969;52.304;4.968;2023-04-25T02:39:08;11.30;;;2.90;;
9860;SDS011;4969;52.304;4.968;2023-04-25T02:41:35;12.03;;;3.03;;
9860;SDS011;4969;52.304;4.968;2023-04-25T02:44:01;9.13;;;2.97;;
9860;SDS011;4969;52.304;4.968;2023-04-25T02:46:28;12.83;;;3.87;;
9860;SDS011;4969;52.304;4.968;2023-04-25T02:48:56;11.07;;;3.30;;
9860;SDS011;4969;52.304;4.968;2023-04-25T02:51:23;9.13;;;2.83;;
9860;SDS011;4969;52.304;4.968;2023-04-25T02:53:49;8.73;;;2.60;;
9860;SDS011;4969;52.304;4.968;2023-04-25T02:56:16;7.60;;;2.30;;
9860;SDS011;4969;52.304;4.968;2023-04-25T02:58:43;5.00;;;2.20;;
9860;SDS011;4969;52.304;4.968;2023-04-25T03:01:10;5.67;;;1.70;;
9860;SDS011;4969;52.304;4.968;2023-04-25T03:03:36;7.53;;;2.30;;
9860;SDS011;4969;52.304;4.968;2023-04-25T03:06:04;5.33;;;1.73;;
9860;SDS011;4969;52.304;4.968;2023-04-25T03:08:31;6.93;;;2.00;;
9860;SDS011;4969;52.304;4.968;2023-04-25T03:10:59;6.73;;;2.20;;
9860;SDS011;4969;52.304;4.968;2023-04-25T03:13:25;5.37;;;1.97;;
9860;SDS011;4969;52.304;4.968;2023-04-25T03:15:54;6.97;;;1.80;;
9860;SDS011;4969;52.304;4.968;2023-04-25T03:18:21;4.47;;;1.50;;
9860;SDS011;4969;52.304;4.968;2023-04-25T03:20:48;3.70;;;1.80;;
9860;SDS011;4969;52.304;4.968;2023-04-25T03:23:15;4.40;;;1.90;;
9860;SDS011;4969;52.304;4.968;2023-04-25T03:25:42;4.30;;;1.80;;
9860;SDS011;4969;52.304;4.968;2023-04-25T03:28:08;4.47;;;1.80;;
9860;SDS011;4969;52.304;4.968;2023-04-25T03:30:35;4.93;;;1.97;;
9860;SDS011;4969;52.304;4.968;2023-04-25T03:33:02;4.60;;;1.60;;
9860;SDS011;4969;52.304;4.968;2023-04-25T03:35:28;6.53;;;2.30;;
9860;SDS011;4969;52.304;4.968;2023-04-25T03:37:55;6.67;;;2.10;;
9860;SDS011;4969;52.304;4.968;2023-04-25T03:40:23;8.10;;;1.90;;
9860;SDS011;4969;52.304;4.968;2023-04-25T03:42:50;10.13;;;2.37;;
9860;SDS011;4969;52.304;4.968;2023-04-25T03:45:16;7.00;;;2.63;;
9860;SDS011;4969;52.304;4.968;2023-04-25T03:47:43;5.73;;;2.00;;
9860;SDS011;4969;52.304;4.968;2023-04-25T03:50:09;5.83;;;2.30;;
9860;SDS011;4969;52.304;4.968;2023-04-25T03:52:36;6.43;;;2.50;;
9860;SDS011;4969;52.304;4.968;2023-04-25T03:55:03;6.43;;;2.10;;
9860;SDS011;4969;52.304;4.968;2023-04-25T03:57:32;6.93;;;2.20;;
9860;SDS011;4969;52.304;4.968;2023-04-25T03:59:58;6.07;;;2.40;;
9860;SDS011;4969;52.304;4.968;2023-04-25T04:02:25;4.87;;;1.73;;
9860;SDS011;4969;52.304;4.968;2023-04-25T04:04:51;5.07;;;2.00;;
9860;SDS011;4969;52.304;4.968;2023-04-25T04:07:18;6.53;;;2.20;;
9860;SDS011;4969;52.304;4.968;2023-04-25T04:09:45;6.00;;;2.00;;
9860;SDS011;4969;52.304;4.968;2023-04-25T04:12:11;5.87;;;2.80;;
9860;SDS011;4969;52.304;4.968;2023-04-25T04:14:39;4.30;;;1.67;;
9860;SDS011;4969;52.304;4.968;2023-04-25T04:17:06;5.23;;;2.20;;
9860;SDS011;4969;52.304;4.968;2023-04-25T04:19:32;6.77;;;2.17;;
9860;SDS011;4969;52.304;4.968;2023-04-25T04:21:59;6.87;;;2.17;;
9860;SDS011;4969;52.304;4.968;2023-04-25T04:24:25;5.70;;;2.50;;
9860;SDS011;4969;52.304;4.968;2023-04-25T04:26:52;6.73;;;2.30;;
9860;SDS011;4969;52.304;4.968;2023-04-25T04:29:18;7.13;;;2.10;;
9860;SDS011;4969;52.304;4.968;2023-04-25T04:31:48;6.47;;;2.10;;
9860;SDS011;4969;52.304;4.968;2023-04-25T04:34:15;5.90;;;2.10;;
9860;SDS011;4969;52.304;4.968;2023-04-25T04:36:44;7.40;;;2.50;;
9860;SDS011;4969;52.304;4.968;2023-04-25T04:39:11;7.17;;;2.20;;
9860;SDS011;4969;52.304;4.968;2023-04-25T04:41:38;5.53;;;2.17;;
9860;SDS011;4969;52.304;4.968;2023-04-25T04:44:05;7.47;;;2.27;;
9860;SDS011;4969;52.304;4.968;2023-04-25T04:46:33;10.43;;;2.43;;
9860;SDS011;4969;52.304;4.968;2023-04-25T04:49:04;6.87;;;2.40;;
9860;SDS011;4969;52.304;4.968;2023-04-25T04:51:31;5.10;;;1.80;;
9860;SDS011;4969;52.304;4.968;2023-04-25T04:53:58;5.40;;;1.87;;
9860;SDS011;4969;52.304;4.968;2023-04-25T04:56:27;7.50;;;2.47;;
9860;SDS011;4969;52.304;4.968;2023-04-25T04:58:54;6.60;;;2.17;;
9860;SDS011;4969;52.304;4.968;2023-04-25T05:01:21;5.33;;;2.10;;
9860;SDS011;4969;52.304;4.968;2023-04-25T05:03:48;6.97;;;2.23;;
9860;SDS011;4969;52.304;4.968;2023-04-25T05:06:16;5.63;;;2.03;;
9860;SDS011;4969;52.304;4.968;2023-04-25T05:08:42;5.23;;;1.90;;
9860;SDS011;4969;52.304;4.968;2023-04-25T05:11:09;8.53;;;2.63;;
9860;SDS011;4969;52.304;4.968;2023-04-25T05:13:36;6.90;;;2.50;;
9860;SDS011;4969;52.304;4.968;2023-04-25T05:16:02;8.60;;;2.53;;
9860;SDS011;4969;52.304;4.968;2023-04-25T05:18:29;6.73;;;2.33;;
9860;SDS011;4969;52.304;4.968;2023-04-25T05:20:56;6.20;;;2.47;;
9860;SDS011;4969;52.304;4.968;2023-04-25T05:23:24;6.67;;;2.40;;
9860;SDS011;4969;52.304;4.968;2023-04-25T05:25:52;8.53;;;2.73;;
9860;SDS011;4969;52.304;4.968;2023-04-25T05:28:19;9.07;;;2.60;;
9860;SDS011;4969;52.304;4.968;2023-04-25T05:30:46;8.03;;;2.70;;
9860;SDS011;4969;52.304;4.968;2023-04-25T05:33:12;7.60;;;2.67;;
9860;SDS011;4969;52.304;4.968;2023-04-25T05:35:39;7.50;;;2.37;;
9860;SDS011;4969;52.304;4.968;2023-04-25T05:38:06;7.00;;;2.53;;
9860;SDS011;4969;52.304;4.968;2023-04-25T05:40:34;5.23;;;2.27;;
9860;SDS011;4969;52.304;4.968;2023-04-25T05:43:00;6.53;;;2.60;;
9860;SDS011;4969;52.304;4.968;2023-04-25T05:45:27;9.70;;;2.60;;
9860;SDS011;4969;52.304;4.968;2023-04-25T05:47:54;9.97;;;3.00;;
9860;SDS011;4969;52.304;4.968;2023-04-25T05:50:20;5.70;;;3.07;;
9860;SDS011;4969;52.304;4.968;2023-04-25T05:52:47;11.73;;;2.80;;
9860;SDS011;4969;52.304;4.968;2023-04-25T05:55:13;8.83;;;3.00;;
9860;SDS011;4969;52.304;4.968;2023-04-25T05:57:42;9.73;;;3.33;;
9860;SDS011;4969;52.304;4.968;2023-04-25T06:00:11;10.47;;;3.10;;
9860;SDS011;4969;52.304;4.968;2023-04-25T06:02:40;11.23;;;2.70;;
9860;SDS011;4969;52.304;4.968;2023-04-25T06:05:07;7.63;;;2.70;;
9860;SDS011;4969;52.304;4.968;2023-04-25T06:07:34;13.97;;;2.90;;
9860;SDS011;4969;52.304;4.968;2023-04-25T06:10:00;10.97;;;2.53;;
9860;SDS011;4969;52.304;4.968;2023-04-25T06:12:28;6.77;;;2.20;;
9860;SDS011;4969;52.304;4.968;2023-04-25T06:14:56;7.37;;;2.50;;
9860;SDS011;4969;52.304;4.968;2023-04-25T06:17:23;12.23;;;2.70;;
9860;SDS011;4969;52.304;4.968;2023-04-25T06:19:49;10.13;;;2.60;;
9860;SDS011;4969;52.304;4.968;2023-04-25T06:22:16;9.07;;;2.60;;
9860;SDS011;4969;52.304;4.968;2023-04-25T06:24:43;6.57;;;2.17;;
9860;SDS011;4969;52.304;4.968;2023-04-25T06:27:10;7.10;;;2.20;;
9860;SDS011;4969;52.304;4.968;2023-04-25T06:29:37;7.47;;;2.67;;
9860;SDS011;4969;52.304;4.968;2023-04-25T06:32:05;14.43;;;2.60;;
9860;SDS011;4969;52.304;4.968;2023-04-25T06:34:32;9.53;;;2.40;;
9860;SDS011;4969;52.304;4.968;2023-04-25T06:36:58;8.40;;;2.27;;
9860;SDS011;4969;52.304;4.968;2023-04-25T06:39:25;8.60;;;2.67;;
9860;SDS011;4969;52.304;4.968;2023-04-25T06:41:51;6.97;;;2.13;;
9860;SDS011;4969;52.304;4.968;2023-04-25T06:44:18;7.80;;;1.80;;
9860;SDS011;4969;52.304;4.968;2023-04-25T06:46:46;3.17;;;1.53;;
9860;SDS011;4969;52.304;4.968;2023-04-25T06:49:14;4.77;;;1.43;;
9860;SDS011;4969;52.304;4.968;2023-04-25T06:51:40;3.40;;;1.33;;
9860;SDS011;4969;52.304;4.968;2023-04-25T06:54:07;4.70;;;1.40;;
9860;SDS011;4969;52.304;4.968;2023-04-25T06:56:33;3.10;;;1.80;;
9860;SDS011;4969;52.304;4.968;2023-04-25T06:59:00;3.47;;;1.73;;
9860;SDS011;4969;52.304;4.968;2023-04-25T07:01:27;3.43;;;1.90;;
9860;SDS011;4969;52.304;4.968;2023-04-25T07:03:53;3.33;;;1.37;;
9860;SDS011;4969;52.304;4.968;2023-04-25T07:06:21;4.40;;;1.73;;
9860;SDS011;4969;52.304;4.968;2023-04-25T07:08:48;3.53;;;1.47;;
9860;SDS011;4969;52.304;4.968;2023-04-25T07:11:14;6.53;;;1.80;;
9860;SDS011;4969;52.304;4.968;2023-04-25T07:13:41;3.53;;;1.63;;
9860;SDS011;4969;52.304;4.968;2023-04-25T07:16:07;4.80;;;1.90;;
9860;SDS011;4969;52.304;4.968;2023-04-25T07:18:34;6.43;;;1.83;;
9860;SDS011;4969;52.304;4.968;2023-04-25T07:21:00;6.60;;;2.17;;
9860;SDS011;4969;52.304;4.968;2023-04-25T07:23:28;7.40;;;2.20;;
9860;SDS011;4969;52.304;4.968;2023-04-25T07:25:55;6.03;;;1.77;;
9860;SDS011;4969;52.304;4.968;2023-04-25T07:28:22;6.33;;;2.07;;
9860;SDS011;4969;52.304;4.968;2023-04-25T07:30:48;7.43;;;2.27;;
9860;SDS011;4969;52.304;4.968;2023-04-25T07:33:15;6.60;;;2.07;;
9860;SDS011;4969;52.304;4.968;2023-04-25T07:35:41;7.60;;;2.23;;
9860;SDS011;4969;52.304;4.968;2023-04-25T07:38:08;8.40;;;2.67;;
9860;SDS011;4969;52.304;4.968;2023-04-25T07:40:36;6.40;;;2.40;;
9860;SDS011;4969;52.304;4.968;2023-04-25T07:43:03;8.37;;;2.10;;
9860;SDS011;4969;52.304;4.968;2023-04-25T07:45:29;8.37;;;2.30;;
9860;SDS011;4969;52.304;4.968;2023-04-25T07:47:56;5.60;;;2.47;;
9860;SDS011;4969;52.304;4.968;2023-04-25T07:50:22;8.60;;;2.20;;
9860;SDS011;4969;52.304;4.968;2023-04-25T07:52:49;8.57;;;2.33;;
9860;SDS011;4969;52.304;4.968;2023-04-25T07:55:16;8.17;;;2.10;;
9860;SDS011;4969;52.304;4.968;2023-04-25T07:57:44;7.70;;;2.50;;
9860;SDS011;4969;52.304;4.968;2023-04-25T08:00:11;2.47;;;1.30;;
9860;SDS011;4969;52.304;4.968;2023-04-25T08:02:39;3.53;;;1.20;;
9860;SDS011;4969;52.304;4.968;2023-04-25T08:05:06;3.67;;;1.00;;
9860;SDS011;4969;52.304;4.968;2023-04-25T08:07:36;3.53;;;1.20;;
9860;SDS011;4969;52.304;4.968;2023-04-25T08:10:03;3.10;;;1.10;;
9860;SDS011;4969;52.304;4.968;2023-04-25T08:12:31;3.80;;;1.30;;
9860;SDS011;4969;52.304;4.968;2023-04-25T08:14:59;4.53;;;1.83;;
9860;SDS011;4969;52.304;4.968;2023-04-25T08:17:26;5.77;;;1.37;;
9860;SDS011;4969;52.304;4.968;2023-04-25T08:19:52;5.27;;;1.60;;
9860;SDS011;4969;52.304;4.968;2023-04-25T08:22:20;3.83;;;1.80;;
9860;SDS011;4969;52.304;4.968;2023-04-25T08:24:46;6.10;;;1.80;;
9860;SDS011;4969;52.304;4.968;2023-04-25T08:27:13;6.00;;;2.00;;
9860;SDS011;4969;52.304;4.968;2023-04-25T08:29:40;3.57;;;1.67;;
9860;SDS011;4969;52.304;4.968;2023-04-25T08:32:08;5.33;;;2.07;;
9860;SDS011;4969;52.304;4.968;2023-04-25T08:34:35;4.60;;;1.70;;
9860;SDS011;4969;52.304;4.968;2023-04-25T08:37:04;6.10;;;1.70;;
9860;SDS011;4969;52.304;4.968;2023-04-25T08:39:31;4.27;;;1.70;;
9860;SDS011;4969;52.304;4.968;2023-04-25T08:41:57;4.87;;;1.53;;
9860;SDS011;4969;52.304;4.968;2023-04-25T08:44:24;5.17;;;1.73;;
9860;SDS011;4969;52.304;4.968;2023-04-25T08:46:51;5.33;;;3.00;;
9860;SDS011;4969;52.304;4.968;2023-04-25T08:49:20;4.40;;;1.77;;
9860;SDS011;4969;52.304;4.968;2023-04-25T08:51:47;6.60;;;1.77;;
9860;SDS011;4969;52.304;4.968;2023-04-25T08:54:15;6.37;;;2.00;;
9860;SDS011;4969;52.304;4.968;2023-04-25T08:56:43;5.23;;;2.97;;
9860;SDS011;4969;52.304;4.968;2023-04-25T08:59:11;5.93;;;2.00;;
9860;SDS011;4969;52.304;4.968;2023-04-25T09:01:38;8.50;;;3.83;;
9860;SDS011;4969;52.304;4.968;2023-04-25T09:04:05;4.60;;;1.87;;
9860;SDS011;4969;52.304;4.968;2023-04-25T09:06:33;5.77;;;1.47;;
9860;SDS011;4969;52.304;4.968;2023-04-25T09:09:01;5.67;;;1.67;;
9860;SDS011;4969;52.304;4.968;2023-04-25T09:11:29;5.33;;;1.67;;
9860;SDS011;4969;52.304;4.968;2023-04-25T09:14:09;10.90;;;3.57;;
9860;SDS011;4969;52.304;4.968;2023-04-25T09:16:45;5.97;;;2.77;;
9860;SDS011;4969;52.304;4.968;2023-04-25T09:19:24;9.73;;;3.13;;
9860;SDS011;4969;52.304;4.968;2023-04-25T09:21:55;8.53;;;2.60;;
9860;SDS011;4969;52.304;4.968;2023-04-25T09:24:29;7.00;;;2.53;;
9860;SDS011;4969;52.304;4.968;2023-04-25T09:26:57;4.77;;;2.00;;
9860;SDS011;4969;52.304;4.968;2023-04-25T09:29:28;4.17;;;1.50;;
9860;SDS011;4969;52.304;4.968;2023-04-25T09:32:06;3.50;;;1.33;;
9860;SDS011;4969;52.304;4.968;2023-04-25T09:34:38;7.97;;;2.23;;
9860;SDS011;4969;52.304;4.968;2023-04-25T09:37:07;5.13;;;1.70;;
9860;SDS011;4969;52.304;4.968;2023-04-25T09:39:35;5.63;;;2.10;;
9860;SDS011;4969;52.304;4.968;2023-04-25T09:42:02;4.43;;;1.23;;
9860;SDS011;4969;52.304;4.968;2023-04-25T09:44:29;6.63;;;1.70;;
9860;SDS011;4969;52.304;4.968;2023-04-25T09:46:56;1.70;;;1.30;;
9860;SDS011;4969;52.304;4.968;2023-04-25T09:49:24;6.07;;;1.50;;
9860;SDS011;4969;52.304;4.968;2023-04-25T09:51:54;2.63;;;1.60;;
9860;SDS011;4969;52.304;4.968;2023-04-25T09:54:23;7.27;;;1.80;;
9860;SDS011;4969;52.304;4.968;2023-04-25T09:56:51;5.07;;;1.83;;
9860;SDS011;4969;52.304;4.968;2023-04-25T09:59:19;4.53;;;1.57;;
9860;SDS011;4969;52.304;4.968;2023-04-25T10:01:46;5.73;;;2.00;;
9860;SDS011;4969;52.304;4.968;2023-04-25T10:04:15;5.50;;;1.80;;
9860;SDS011;4969;52.304;4.968;2023-04-25T10:06:47;3.20;;;1.50;;
9860;SDS011;4969;52.304;4.968;2023-04-25T10:09:15;4.17;;;1.60;;
9860;SDS011;4969;52.304;4.968;2023-04-25T10:11:44;5.30;;;2.20;;
9860;SDS011;4969;52.304;4.968;2023-04-25T10:14:12;6.10;;;2.20;;
9860;SDS011;4969;52.304;4.968;2023-04-25T10:16:40;4.50;;;2.13;;
9860;SDS011;4969;52.304;4.968;2023-04-25T10:19:08;2.97;;;1.60;;
9860;SDS011;4969;52.304;4.968;2023-04-25T10:21:35;6.50;;;1.87;;
9860;SDS011;4969;52.304;4.968;2023-04-25T10:24:06;4.37;;;1.87;;
9860;SDS011;4969;52.304;4.968;2023-04-25T10:26:33;5.60;;;1.80;;
9860;SDS011;4969;52.304;4.968;2023-04-25T10:29:01;7.40;;;1.83;;
9860;SDS011;4969;52.304;4.968;2023-04-25T10:31:30;3.50;;;1.33;;
9860;SDS011;4969;52.304;4.968;2023-04-25T10:33:56;2.60;;;1.10;;
9860;SDS011;4969;52.304;4.968;2023-04-25T10:36:24;3.70;;;2.03;;
9860;SDS011;4969;52.304;4.968;2023-04-25T10:38:52;2.77;;;1.53;;
9860;SDS011;4969;52.304;4.968;2023-04-25T10:41:19;3.87;;;1.37;;
9860;SDS011;4969;52.304;4.968;2023-04-25T10:43:48;5.60;;;2.33;;
9860;SDS011;4969;52.304;4.968;2023-04-25T10:46:17;4.30;;;2.23;;
9860;SDS011;4969;52.304;4.968;2023-04-25T10:48:46;5.73;;;2.03;;
9860;SDS011;4969;52.304;4.968;2023-04-25T10:51:18;3.43;;;1.57;;
9860;SDS011;4969;52.304;4.968;2023-04-25T10:53:46;5.77;;;1.53;;
9860;SDS011;4969;52.304;4.968;2023-04-25T10:56:22;4.30;;;1.43;;
9860;SDS011;4969;52.304;4.968;2023-04-25T10:58:51;5.33;;;2.10;;
9860;SDS011;4969;52.304;4.968;2023-04-25T11:01:20;4.73;;;1.87;;
9860;SDS011;4969;52.304;4.968;2023-04-25T11:03:56;5.23;;;1.70;;
9860;SDS011;4969;52.304;4.968;2023-04-25T11:06:32;5.13;;;1.77;;
9860;SDS011;4969;52.304;4.968;2023-04-25T11:09:10;5.37;;;2.33;;
9860;SDS011;4969;52.304;4.968;2023-04-25T11:11:38;5.23;;;2.70;;
9860;SDS011;4969;52.304;4.968;2023-04-25T11:14:05;6.73;;;2.13;;
9860;SDS011;4969;52.304;4.968;2023-04-25T11:16:33;4.10;;;1.87;;
9860;SDS011;4969;52.304;4.968;2023-04-25T11:19:01;6.10;;;3.17;;
9860;SDS011;4969;52.304;4.968;2023-04-25T11:21:28;8.47;;;3.53;;
9860;SDS011;4969;52.304;4.968;2023-04-25T11:23:56;13.13;;;8.37;;
9860;SDS011;4969;52.304;4.968;2023-04-25T11:26:24;2.70;;;1.40;;
9860;SDS011;4969;52.304;4.968;2023-04-25T11:28:50;7.63;;;3.50;;
9860;SDS011;4969;52.304;4.968;2023-04-25T11:31:19;5.00;;;1.83;;
9860;SDS011;4969;52.304;4.968;2023-04-25T11:33:47;5.27;;;1.87;;
9860;SDS011;4969;52.304;4.968;2023-04-25T11:36:14;11.43;;;5.10;;
9860;SDS011;4969;52.304;4.968;2023-04-25T11:38:41;5.27;;;1.77;;
9860;SDS011;4969;52.304;4.968;2023-04-25T11:41:07;8.63;;;5.90;;
9860;SDS011;4969;52.304;4.968;2023-04-25T11:43:34;3.90;;;1.40;;
9860;SDS011;4969;52.304;4.968;2023-04-25T11:46:00;7.07;;;2.67;;
9860;SDS011;4969;52.304;4.968;2023-04-25T11:48:27;6.23;;;3.23;;
9860;SDS011;4969;52.304;4.968;2023-04-25T11:50:56;4.10;;;2.20;;
9860;SDS011;4969;52.304;4.968;2023-04-25T11:53:23;7.77;;;1.60;;
9860;SDS011;4969;52.304;4.968;2023-04-25T11:55:50;7.00;;;2.90;;
9860;SDS011;4969;52.304;4.968;2023-04-25T11:58:16;5.30;;;3.23;;
9860;SDS011;4969;52.304;4.968;2023-04-25T12:00:44;6.60;;;2.03;;
9860;SDS011;4969;52.304;4.968;2023-04-25T12:03:11;4.93;;;2.00;;
9860;SDS011;4969;52.304;4.968;2023-04-25T12:05:37;5.10;;;2.70;;
9860;SDS011;4969;52.304;4.968;2023-04-25T12:08:12;3.97;;;1.50;;
9860;SDS011;4969;52.304;4.968;2023-04-25T12:10:40;5.53;;;1.77;;
9860;SDS011;4969;52.304;4.968;2023-04-25T12:13:17;5.27;;;1.97;;
9860;SDS011;4969;52.304;4.968;2023-04-25T12:15:45;6.27;;;2.20;;
9860;SDS011;4969;52.304;4.968;2023-04-25T12:18:12;4.33;;;1.60;;
9860;SDS011;4969;52.304;4.968;2023-04-25T12:20:39;4.13;;;1.80;;
9860;SDS011;4969;52.304;4.968;2023-04-25T12:23:05;4.80;;;1.33;;
9860;SDS011;4969;52.304;4.968;2023-04-25T12:25:35;4.90;;;2.27;;
9860;SDS011;4969;52.304;4.968;2023-04-25T12:28:10;3.03;;;1.30;;
9860;SDS011;4969;52.304;4.968;2023-04-25T12:30:51;3.80;;;2.07;;
9860;SDS011;4969;52.304;4.968;2023-04-25T12:33:19;3.00;;;1.33;;
9860;SDS011;4969;52.304;4.968;2023-04-25T12:35:45;4.90;;;2.20;;
9860;SDS011;4969;52.304;4.968;2023-04-25T12:38:19;5.10;;;2.10;;
9860;SDS011;4969;52.304;4.968;2023-04-25T12:40:48;4.70;;;1.77;;
9860;SDS011;4969;52.304;4.968;2023-04-25T12:43:15;3.47;;;1.47;;
9860;SDS011;4969;52.304;4.968;2023-04-25T12:45:41;4.37;;;1.73;;
9860;SDS011;4969;52.304;4.968;2023-04-25T12:48:08;6.27;;;1.70;;
9860;SDS011;4969;52.304;4.968;2023-04-25T12:50:35;4.80;;;1.70;;
9860;SDS011;4969;52.304;4.968;2023-04-25T12:53:01;4.00;;;1.77;;
9860;SDS011;4969;52.304;4.968;2023-04-25T12:55:28;3.43;;;1.50;;
9860;SDS011;4969;52.304;4.968;2023-04-25T12:57:56;5.83;;;1.80;;
9860;SDS011;4969;52.304;4.968;2023-04-25T13:00:22;5.50;;;1.83;;
9860;SDS011;4969;52.304;4.968;2023-04-25T13:02:49;6.03;;;1.90;;
9860;SDS011;4969;52.304;4.968;2023-04-25T13:05:16;5.70;;;1.73;;
9860;SDS011;4969;52.304;4.968;2023-04-25T13:07:42;8.13;;;1.97;;
9860;SDS011;4969;52.304;4.968;2023-04-25T13:10:09;7.13;;;2.00;;
9860;SDS011;4969;52.304;4.968;2023-04-25T13:12:36;6.50;;;2.07;;
9860;SDS011;4969;52.304;4.968;2023-04-25T13:15:05;6.83;;;2.23;;
9860;SDS011;4969;52.304;4.968;2023-04-25T13:17:34;4.00;;;1.80;;
9860;SDS011;4969;52.304;4.968;2023-04-25T13:20:00;5.60;;;2.37;;
9860;SDS011;4969;52.304;4.968;2023-04-25T13:22:29;7.43;;;2.83;;
9860;SDS011;4969;52.304;4.968;2023-04-25T13:24:55;5.00;;;2.33;;
9860;SDS011;4969;52.304;4.968;2023-04-25T13:27:22;4.63;;;1.77;;
9860;SDS011;4969;52.304;4.968;2023-04-25T13:29:48;6.23;;;2.23;;
9860;SDS011;4969;52.304;4.968;2023-04-25T13:32:16;5.50;;;1.90;;
9860;SDS011;4969;52.304;4.968;2023-04-25T13:34:43;5.50;;;1.73;;
9860;SDS011;4969;52.304;4.968;2023-04-25T13:37:09;4.40;;;1.43;;
9860;SDS011;4969;52.304;4.968;2023-04-25T13:39:36;5.03;;;1.83;;
9860;SDS011;4969;52.304;4.968;2023-04-25T13:42:03;6.80;;;1.97;;
9860;SDS011;4969;52.304;4.968;2023-04-25T13:44:29;4.13;;;1.70;;
9860;SDS011;4969;52.304;4.968;2023-04-25T13:46:56;5.60;;;1.83;;
9860;SDS011;4969;52.304;4.968;2023-04-25T13:49:24;5.60;;;2.37;;
9860;SDS011;4969;52.304;4.968;2023-04-25T13:51:50;4.47;;;1.50;;
9860;SDS011;4969;52.304;4.968;2023-04-25T13:54:17;7.40;;;2.73;;
9860;SDS011;4969;52.304;4.968;2023-04-25T13:56:44;5.30;;;1.80;;
9860;SDS011;4969;52.304;4.968;2023-04-25T13:59:10;5.93;;;3.00;;
9860;SDS011;4969;52.304;4.968;2023-04-25T14:01:37;2.40;;;1.83;;
9860;SDS011;4969;52.304;4.968;2023-04-25T14:04:03;2.80;;;1.33;;
9860;SDS011;4969;52.304;4.968;2023-04-25T14:06:32;5.27;;;2.13;;
9860;SDS011;4969;52.304;4.968;2023-04-25T14:08:59;3.03;;;1.60;;
9860;SDS011;4969;52.304;4.968;2023-04-25T14:11:26;5.60;;;3.03;;
9860;SDS011;4969;52.304;4.968;2023-04-25T14:13:53;3.57;;;2.07;;
9860;SDS011;4969;52.304;4.968;2023-04-25T14:16:20;6.70;;;2.17;;
9860;SDS011;4969;52.304;4.968;2023-04-25T14:18:47;2.90;;;1.53;;
9860;SDS011;4969;52.304;4.968;2023-04-25T14:21:14;5.80;;;1.60;;
9860;SDS011;4969;52.304;4.968;2023-04-25T14:23:42;3.53;;;1.40;;
9860;SDS011;4969;52.304;4.968;2023-04-25T14:26:08;7.43;;;2.40;;
9860;SDS011;4969;52.304;4.968;2023-04-25T14:28:37;6.13;;;2.70;;
9860;SDS011;4969;52.304;4.968;2023-04-25T14:31:04;4.57;;;1.60;;
9860;SDS011;4969;52.304;4.968;2023-04-25T14:33:30;4.37;;;1.70;;
9860;SDS011;4969;52.304;4.968;2023-04-25T14:35:57;3.23;;;1.50;;
9860;SDS011;4969;52.304;4.968;2023-04-25T14:38:24;4.70;;;2.77;;
9860;SDS011;4969;52.304;4.968;2023-04-25T14:40:52;3.17;;;1.33;;
9860;SDS011;4969;52.304;4.968;2023-04-25T14:43:19;2.63;;;1.57;;
9860;SDS011;4969;52.304;4.968;2023-04-25T14:45:45;3.17;;;1.20;;
9860;SDS011;4969;52.304;4.968;2023-04-25T14:48:14;6.77;;;2.03;;
9860;SDS011;4969;52.304;4.968;2023-04-25T14:50:41;3.80;;;1.87;;
9860;SDS011;4969;52.304;4.968;2023-04-25T14:53:07;4.80;;;1.40;;
9860;SDS011;4969;52.304;4.968;2023-04-25T14:55:34;3.97;;;1.67;;
9860;SDS011;4969;52.304;4.968;2023-04-25T14:58:02;5.77;;;2.60;;
9860;SDS011;4969;52.304;4.968;2023-04-25T15:00:29;4.17;;;2.63;;
9860;SDS011;4969;52.304;4.968;2023-04-25T15:02:56;5.10;;;2.07;;
9860;SDS011;4969;52.304;4.968;2023-04-25T15:05:23;6.60;;;2.33;;
9860;SDS011;4969;52.304;4.968;2023-04-25T15:07:50;7.00;;;1.67;;
9860;SDS011;4969;52.304;4.968;2023-04-25T15:10:17;5.43;;;2.17;;
9860;SDS011;4969;52.304;4.968;2023-04-25T15:12:44;3.60;;;1.60;;
9860;SDS011;4969;52.304;4.968;2023-04-25T15:15:13;6.70;;;2.00;;